createdAt,value
2024-05-09T00:00:46.642Z,102677.34
2024-05-09T00:03:14.270Z,102674.72
2024-05-09T00:05:43.002Z,102682.63
2024-05-09T00:08:11.504Z,102677.38
2024-05-09T00:10:40.716Z,102672.09
2024-05-09T00:13:10.768Z,102670.34
2024-05-09T00:15:39.107Z,102668.56
2024-05-09T00:18:07.618Z,102672.09
2024-05-09T00:20:39.703Z,102669.47
2024-05-09T00:23:13.623Z,102666.84
2024-05-09T00:25:44.804Z,102672.97
2024-05-09T00:28:12.900Z,102665.06
2024-05-09T00:30:41.140Z,102673.84
2024-05-09T00:33:10.246Z,102675.59
2024-05-09T00:35:39.190Z,102671.22
2024-05-09T00:38:06.925Z,102668.56
2024-05-09T00:40:43.932Z,102662.44
2024-05-09T00:43:14.085Z,102665.97
2024-05-09T00:45:43.793Z,102668.59
2024-05-09T00:48:17.487Z,102663.31
2024-05-09T00:50:47.967Z,102660.69
2024-05-09T00:53:18.095Z,102663.31
2024-05-09T00:55:47.901Z,102662.41
2024-05-09T00:58:18.555Z,102665.03
2024-05-09T01:00:46.443Z,102659.75
2024-05-09T01:03:14.515Z,102663.28
2024-05-09T01:05:43.833Z,102661.53
2024-05-09T01:08:12.712Z,102655.38
2024-05-09T01:10:43.884Z,102662.41
2024-05-09T01:13:12.797Z,102655.38
2024-05-09T01:15:40.280Z,102644.81
2024-05-09T01:18:12.359Z,102645.72
2024-05-09T01:20:44.041Z,102649.22
2024-05-09T01:23:15.368Z,102643.94
2024-05-09T01:25:45.766Z,102642.19
2024-05-09T01:28:14.109Z,102644.81
2024-05-09T01:30:41.464Z,102636.03
2024-05-09T01:33:10.729Z,102636.91
2024-05-09T01:35:41.451Z,102636.91
2024-05-09T01:38:12.831Z,102637.78
2024-05-09T01:40:40.599Z,102640.41
2024-05-09T01:43:09.454Z,102637.81
2024-05-09T01:45:39.185Z,102638.66
2024-05-09T01:48:08.434Z,102640.41
2024-05-09T01:50:40.130Z,102640.44
2024-05-09T01:53:15.317Z,102645.72
2024-05-09T01:55:44.043Z,102644.81
2024-05-09T01:58:11.555Z,102635.16
2024-05-09T02:00:42.414Z,102643.06
2024-05-09T02:03:15.814Z,102644.81
2024-05-09T02:05:47.390Z,102643.91
2024-05-09T02:08:19.038Z,102647.44
2024-05-09T02:10:49.241Z,102644.78
2024-05-09T02:13:17.018Z,102646.56
2024-05-09T02:15:44.707Z,102637.78
2024-05-09T02:18:12.877Z,102637.75
2024-05-09T02:20:42.178Z,102639.50
2024-05-09T02:23:10.502Z,102627.19
2024-05-09T02:25:38.121Z,102637.72
2024-05-09T02:28:06.287Z,102634.19
2024-05-09T02:30:39.700Z,102632.44
2024-05-09T02:33:12.104Z,102635.03
2024-05-09T02:35:42.579Z,102639.41
2024-05-09T02:38:10.682Z,102635.03
2024-05-09T02:40:39.617Z,102637.66
2024-05-09T02:43:10.793Z,102627.13
2024-05-09T02:45:40.038Z,102623.63
2024-05-09T02:48:12.671Z,102627.97
2024-05-09T02:50:41.419Z,102631.47
2024-05-09T02:53:09.758Z,102624.44
2024-05-09T02:55:40.056Z,102633.22
2024-05-09T02:58:08.026Z,102632.31
2024-05-09T03:00:39.799Z,102627.03
2024-05-09T03:03:13.362Z,102622.63
2024-05-09T03:05:46.354Z,102620.88
2024-05-09T03:08:14.069Z,102614.75
2024-05-09T03:10:41.788Z,102616.47
2024-05-09T03:13:15.442Z,102622.59
2024-05-09T03:15:44.776Z,102625.25
2024-05-09T03:18:13.342Z,102626.09
2024-05-09T03:20:41.165Z,102626.09
2024-05-09T03:23:09.863Z,102624.34
2024-05-09T03:25:38.949Z,102623.47
2024-05-09T03:28:06.854Z,102623.47
2024-05-09T03:30:40.683Z,102623.44
2024-05-09T03:33:19.159Z,102627.84
2024-05-09T03:35:49.222Z,102622.53
2024-05-09T03:38:17.149Z,102628.66
2024-05-09T03:40:50.310Z,102622.53
2024-05-09T03:43:19.883Z,102615.47
2024-05-09T03:45:50.289Z,102617.22
2024-05-09T03:48:17.800Z,102621.56
2024-05-09T03:50:45.501Z,102616.31
2024-05-09T03:53:14.518Z,102621.56
2024-05-09T03:55:42.093Z,102621.56
2024-05-09T03:58:09.519Z,102625.91
2024-05-09T04:00:39.422Z,102616.25
2024-05-09T04:03:10.800Z,102620.66
2024-05-09T04:05:45.813Z,102635.59
2024-05-09T04:08:15.646Z,102627.72
2024-05-09T04:10:43.431Z,102627.72
2024-05-09T04:13:11.102Z,102622.44
2024-05-09T04:15:39.134Z,102626.84
2024-05-09T04:18:06.787Z,102624.22
2024-05-09T04:20:38.869Z,102620.72
2024-05-09T04:23:12.424Z,102625.09
2024-05-09T04:25:45.453Z,102618.97
2024-05-09T04:28:13.666Z,102629.50
2024-05-09T04:30:41.948Z,102623.38
2024-05-09T04:33:12.398Z,102627.78
2024-05-09T04:35:45.141Z,102624.28
2024-05-09T04:38:14.781Z,102630.44
2024-05-09T04:40:42.925Z,102628.75
2024-05-09T04:43:19.560Z,102628.78
2024-05-09T04:45:47.652Z,102634.94
2024-05-09T04:48:16.533Z,102628.81
2024-05-09T04:50:44.418Z,102620.09
2024-05-09T04:53:16.529Z,102623.66
2024-05-09T04:55:44.481Z,102614.00
2024-05-09T04:58:11.994Z,102620.19
2024-05-09T05:00:40.675Z,102620.19
2024-05-09T05:03:14.005Z,102621.09
2024-05-09T05:05:45.323Z,102620.22
2024-05-09T05:08:15.314Z,102620.22
2024-05-09T05:10:44.052Z,102618.50
2024-05-09T05:13:24.914Z,102629.00
2024-05-09T05:15:57.522Z,102624.44
2024-05-09T05:18:28.290Z,102617.19
2024-05-09T05:20:56.828Z,102618.09
2024-05-09T05:23:24.857Z,102631.91
2024-05-09T05:25:55.188Z,102634.50
2024-05-09T05:28:26.031Z,102638.13
2024-05-09T05:30:53.337Z,102634.72
2024-05-09T05:33:22.557Z,102634.84
2024-05-09T05:35:50.682Z,102634.81
2024-05-09T05:38:18.570Z,102641.47
2024-05-09T05:40:49.471Z,102632.03
2024-05-09T05:43:18.889Z,102638.66
2024-05-09T05:45:46.917Z,102626.06
2024-05-09T05:48:18.127Z,102638.69
2024-05-09T05:50:46.084Z,102639.66
2024-05-09T05:53:14.078Z,102639.59
2024-05-09T05:55:42.047Z,102640.66
2024-05-09T05:58:14.711Z,102646.97
2024-05-09T06:00:42.922Z,102648.38
2024-05-09T06:03:21.351Z,102645.81
2024-05-09T06:05:48.795Z,102648.41
2024-05-09T06:08:18.344Z,102650.34
2024-05-09T06:10:45.809Z,102648.31
2024-05-09T06:13:14.411Z,102643.44
2024-05-09T06:15:43.671Z,102645.63
2024-05-09T06:18:12.542Z,102638.94
2024-05-09T06:20:43.138Z,102641.81
2024-05-09T06:23:12.404Z,102642.94
2024-05-09T06:25:44.031Z,102641.22
2024-05-09T06:28:11.693Z,102647.44
2024-05-09T06:30:42.244Z,102638.66
2024-05-09T06:33:14.362Z,102645.69
2024-05-09T06:35:44.625Z,102644.78
2024-05-09T06:38:13.376Z,102645.63
2024-05-09T06:40:43.161Z,102650.91
2024-05-09T06:43:17.560Z,102654.38
2024-05-09T06:45:49.014Z,102658.69
2024-05-09T06:48:21.452Z,102651.41
2024-05-09T06:50:50.371Z,102647.84
2024-05-09T06:53:22.602Z,102651.44
2024-05-09T06:55:50.136Z,102653.00
2024-05-09T06:58:17.661Z,102653.66
2024-05-09T07:00:45.087Z,102654.34
2024-05-09T07:03:17.002Z,102649.72
2024-05-09T07:05:47.329Z,102642.44
2024-05-09T07:08:16.405Z,102649.31
2024-05-09T07:10:44.503Z,102648.31
2024-05-09T07:13:14.184Z,102656.13
2024-05-09T07:15:42.266Z,102655.00
2024-05-09T07:18:17.730Z,102652.16
2024-05-09T07:20:47.640Z,102650.28
2024-05-09T07:23:16.155Z,102650.97
2024-05-09T07:25:44.071Z,102656.97
2024-05-09T07:28:14.793Z,102649.53
2024-05-09T07:30:42.922Z,102657.22
2024-05-09T07:33:20.198Z,102649.00
2024-05-09T07:35:49.195Z,102652.22
2024-05-09T07:38:16.619Z,102650.94
2024-05-09T07:40:43.967Z,102648.81
2024-05-09T07:43:17.007Z,102649.44
2024-05-09T07:45:52.271Z,102645.69
2024-05-09T07:52:38.368Z,102647.78
2024-05-09T07:53:49.355Z,102655.56
2024-05-09T07:56:22.405Z,102654.47
2024-05-09T07:58:53.360Z,102657.69
2024-05-09T08:01:21.409Z,102655.66
2024-05-09T08:03:50.148Z,102652.66
2024-05-09T08:06:17.871Z,102654.16
2024-05-09T08:08:49.828Z,102655.78
2024-05-09T08:11:17.290Z,102658.38
2024-05-09T08:13:44.574Z,102652.09
2024-05-09T08:16:14.571Z,102644.75
2024-05-09T08:18:42.320Z,102646.56
2024-05-09T08:21:09.794Z,102642.75
2024-05-09T08:23:37.045Z,102637.97
2024-05-09T08:26:04.574Z,102633.28
2024-05-09T08:28:31.833Z,102634.72
2024-05-09T08:31:00.033Z,102631.56
2024-05-09T08:33:29.034Z,102631.31
2024-05-09T08:35:58.193Z,102626.56
2024-05-09T08:38:25.498Z,102627.06
2024-05-09T08:40:53.009Z,102622.47
2024-05-09T08:43:20.634Z,102625.88
2024-05-09T08:45:50.130Z,102619.47
2024-05-09T08:48:19.760Z,102620.22
2024-05-09T08:50:52.128Z,102628.16
2024-05-09T08:53:19.884Z,102621.78
2024-05-09T08:55:51.030Z,102617.66
2024-05-09T08:58:21.687Z,102619.97
2024-05-09T09:00:49.750Z,102620.03
2024-05-09T09:03:26.878Z,102619.56
2024-05-09T09:06:05.515Z,102616.47
2024-05-09T09:08:33.038Z,102614.53
2024-05-09T09:11:00.666Z,102613.63
2024-05-09T09:13:28.214Z,102613.41
2024-05-09T09:15:58.680Z,102607.69
2024-05-09T09:18:27.952Z,102606.19
2024-05-09T09:20:56.064Z,102616.63
2024-05-09T09:23:23.338Z,102609.34
2024-05-09T09:25:50.952Z,102613.91
2024-05-09T09:28:18.453Z,102614.16
2024-05-09T09:30:46.055Z,102611.72
2024-05-09T09:33:13.713Z,102616.06
2024-05-09T09:35:42.537Z,102611.25
2024-05-09T09:38:10.712Z,102606.75
2024-05-09T09:40:49.611Z,102614.78
2024-05-09T09:43:22.522Z,102614.91
2024-05-09T09:45:53.421Z,102605.22
2024-05-09T09:48:23.087Z,102600.44
2024-05-09T09:50:52.577Z,102599.78
2024-05-09T09:53:20.524Z,102597.56
2024-05-09T09:55:48.524Z,102591.25
2024-05-09T09:58:18.051Z,102588.19
2024-05-09T10:00:46.125Z,102587.78
2024-05-09T10:03:13.894Z,102590.91
2024-05-09T10:05:45.085Z,102583.53
2024-05-09T10:08:17.815Z,102578.84
2024-05-09T10:10:48.771Z,102579.44
2024-05-09T10:13:16.530Z,102579.88
2024-05-09T10:15:51.845Z,102575.91
2024-05-09T10:18:27.103Z,102574.59
2024-05-09T10:20:56.711Z,102576.03
2024-05-09T10:23:28.805Z,102569.28
2024-05-09T10:26:05.731Z,102570.28
2024-05-09T10:28:36.988Z,102576.69
2024-05-09T10:31:13.321Z,102569.81
2024-05-09T10:33:52.771Z,102566.41
2024-05-09T10:36:28.970Z,102562.31
2024-05-09T10:38:56.506Z,102563.66
2024-05-09T10:41:23.983Z,102563.03
2024-05-09T10:43:52.152Z,102556.28
2024-05-09T10:46:20.139Z,102557.97
2024-05-09T10:48:50.686Z,102552.16
2024-05-09T10:51:21.970Z,102558.94
2024-05-09T10:53:49.272Z,102555.59
2024-05-09T10:56:17.409Z,102553.53
2024-05-09T10:58:44.890Z,102547.88
2024-05-09T11:01:13.486Z,102550.88
2024-05-09T11:03:42.447Z,102540.16
2024-05-09T11:06:11.329Z,102542.69
2024-05-09T11:08:39.436Z,102541.03
2024-05-09T11:11:08.824Z,102532.34
2024-05-09T11:13:39.803Z,102529.38
2024-05-09T11:16:21.448Z,102529.50
2024-05-09T11:18:58.072Z,102521.53
2024-05-09T11:21:26.130Z,102519.88
2024-05-09T11:23:53.707Z,102512.41
2024-05-09T11:26:22.340Z,102519.31
2024-05-09T11:28:50.819Z,102514.13
2024-05-09T11:31:18.821Z,102517.31
2024-05-09T11:33:47.065Z,102516.34
2024-05-09T11:36:15.245Z,102513.09
2024-05-09T11:38:43.280Z,102508.41
2024-05-09T11:41:18.479Z,102510.31
2024-05-09T11:43:45.967Z,102509.41
2024-05-09T11:46:13.751Z,102503.28
2024-05-09T11:48:41.491Z,102503.28
2024-05-09T11:51:08.963Z,102499.84
2024-05-09T11:53:36.212Z,102495.72
2024-05-09T11:56:04.012Z,102497.16
2024-05-09T11:58:36.820Z,102498.53
2024-05-09T12:01:04.510Z,102494.00
2024-05-09T12:03:32.117Z,102491.06
2024-05-09T12:05:59.785Z,102482.75
2024-05-09T12:08:27.527Z,102480.47
2024-05-09T12:10:55.199Z,102486.22
2024-05-09T12:13:22.657Z,102478.31
2024-05-09T12:15:50.084Z,102474.22
2024-05-09T12:18:17.493Z,102463.34
2024-05-09T12:20:44.844Z,102463.53
2024-05-09T12:23:12.213Z,102464.22
2024-05-09T12:25:40.096Z,102465.34
2024-05-09T12:28:08.907Z,102467.09
2024-05-09T12:30:40.773Z,102455.66
2024-05-09T12:33:13.744Z,102461.22
2024-05-09T12:35:44.321Z,102449.66
2024-05-09T12:38:15.170Z,102448.81
2024-05-09T12:40:43.488Z,102444.50
2024-05-09T12:43:11.668Z,102441.41
2024-05-09T12:45:40.430Z,102437.16
2024-05-09T12:48:12.131Z,102440.44
2024-05-09T12:50:41.111Z,102432.72
2024-05-09T12:53:08.848Z,102437.81
2024-05-09T12:55:45.093Z,102432.91
2024-05-09T12:58:24.197Z,102436.84
2024-05-09T13:00:52.835Z,102429.25
2024-05-09T13:03:20.678Z,102425.41
2024-05-09T13:05:50.287Z,102430.13
2024-05-09T13:08:17.843Z,102426.28
2024-05-09T13:10:45.234Z,102419.56
2024-05-09T13:13:12.944Z,102418.78
2024-05-09T13:15:40.647Z,102418.47
2024-05-09T13:18:09.792Z,102419.22
2024-05-09T13:20:37.435Z,102414.97
2024-05-09T13:23:07.599Z,102409.59
2024-05-09T13:25:37.939Z,102409.41
2024-05-09T13:28:07.891Z,102406.94
2024-05-09T13:30:40.415Z,102405.88
2024-05-09T13:33:11.916Z,102403.47
2024-05-09T13:35:48.806Z,102403.19
2024-05-09T13:38:20.621Z,102403.06
2024-05-09T13:40:49.396Z,102403.28
2024-05-09T13:43:18.079Z,102395.22
2024-05-09T13:45:46.020Z,102392.03
2024-05-09T13:48:13.611Z,102390.34
2024-05-09T13:50:41.575Z,102397.19
2024-05-09T13:53:09.294Z,102395.69
2024-05-09T13:55:40.756Z,102388.88
2024-05-09T13:58:09.595Z,102386.34
2024-05-09T14:00:46.233Z,102389.47
2024-05-09T14:03:19.743Z,102382.69
2024-05-09T14:05:50.849Z,102372.53
2024-05-09T14:08:20.274Z,102381.72
2024-05-09T14:10:49.736Z,102381.88
2024-05-09T14:13:17.502Z,102371.81
2024-05-09T14:15:46.931Z,102375.94
2024-05-09T14:18:15.064Z,102372.59
2024-05-09T14:20:45.014Z,102374.53
2024-05-09T14:23:12.287Z,102373.19
2024-05-09T14:25:42.735Z,102373.13
2024-05-09T14:28:12.636Z,102375.88
2024-05-09T14:30:41.452Z,102370.59
2024-05-09T14:33:11.778Z,102374.44
2024-05-09T14:35:39.521Z,102369.22
2024-05-09T14:38:10.740Z,102368.22
2024-05-09T14:40:42.647Z,102364.22
2024-05-09T14:43:13.655Z,102365.25
2024-05-09T14:45:42.442Z,102364.94
2024-05-09T14:48:11.487Z,102362.28
2024-05-09T14:50:40.487Z,102357.44
2024-05-09T14:53:10.851Z,102368.81
2024-05-09T14:55:41.046Z,102356.97
2024-05-09T14:58:11.418Z,102352.59
2024-05-09T15:00:49.839Z,102358.84
2024-05-09T15:03:22.198Z,102348.72
2024-05-09T15:05:51.357Z,102353.69
2024-05-09T15:08:19.915Z,102346.31
2024-05-09T15:10:49.952Z,102342.84
2024-05-09T15:13:24.232Z,102345.03
2024-05-09T15:15:54.932Z,102341.97
2024-05-09T15:18:23.830Z,102342.44
2024-05-09T15:20:51.551Z,102336.69
2024-05-09T15:23:19.401Z,102328.25
2024-05-09T15:25:46.943Z,102335.09
2024-05-09T15:28:14.644Z,102333.47
2024-05-09T15:30:45.228Z,102325.75
2024-05-09T15:33:14.319Z,102333.38
2024-05-09T15:35:42.011Z,102335.25
2024-05-09T15:38:10.142Z,102332.91
2024-05-09T15:40:40.086Z,102327.84
2024-05-09T15:43:10.788Z,102331.72
2024-05-09T15:45:40.930Z,102330.16
2024-05-09T15:48:11.535Z,102317.94
2024-05-09T15:50:41.732Z,102321.63
2024-05-09T15:53:12.577Z,102328.94
2024-05-09T15:55:41.645Z,102322.16
2024-05-09T15:58:10.395Z,102330.28
2024-05-09T16:00:42.205Z,102328.75
2024-05-09T16:03:13.755Z,102319.84
2024-05-09T16:05:46.719Z,102324.25
2024-05-09T16:08:16.722Z,102317.25
2024-05-09T16:10:47.044Z,102315.38
2024-05-09T16:13:17.552Z,102310.88
2024-05-09T16:15:46.789Z,102310.72
2024-05-09T16:18:14.938Z,102301.66
2024-05-09T16:20:44.746Z,102305.22
2024-05-09T16:23:13.903Z,102301.44
2024-05-09T16:25:46.384Z,102298.38
2024-05-09T16:28:14.334Z,102297.31
2024-05-09T16:30:42.411Z,102305.53
2024-05-09T16:33:13.813Z,102304.22
2024-05-09T16:35:41.722Z,102298.16
2024-05-09T16:38:09.887Z,102296.38
2024-05-09T16:40:40.445Z,102293.44
2024-05-09T16:43:10.870Z,102291.16
2024-05-09T16:45:41.789Z,102291.66
2024-05-09T16:48:10.258Z,102288.50
2024-05-09T16:50:38.549Z,102291.66
2024-05-09T16:53:07.181Z,102293.31
2024-05-09T16:55:36.321Z,102292.28
2024-05-09T16:58:07.452Z,102285.00
2024-05-09T17:00:41.144Z,102281.50
2024-05-09T17:03:15.208Z,102284.53
2024-05-09T17:05:48.888Z,102282.91
2024-05-09T17:08:20.446Z,102285.50
2024-05-09T17:10:49.934Z,102284.09
2024-05-09T17:13:19.351Z,102282.06
2024-05-09T17:15:50.364Z,102281.44
2024-05-09T17:18:18.786Z,102275.84
2024-05-09T17:20:46.897Z,102278.09
2024-05-09T17:23:15.912Z,102271.63
2024-05-09T17:25:44.216Z,102276.59
2024-05-09T17:28:12.839Z,102273.47
2024-05-09T17:30:42.113Z,102278.75
2024-05-09T17:33:11.991Z,102278.75
2024-05-09T17:35:40.870Z,102275.28
2024-05-09T17:38:09.234Z,102269.56
2024-05-09T17:40:38.453Z,102273.63
2024-05-09T17:43:11.136Z,102274.28
2024-05-09T17:45:41.071Z,102270.56
2024-05-09T17:48:11.385Z,102266.88
2024-05-09T17:50:41.680Z,102271.34
2024-05-09T17:53:10.971Z,102269.00
2024-05-09T17:55:40.532Z,102268.66
2024-05-09T17:58:08.689Z,102270.47
2024-05-09T18:00:39.903Z,102269.44
2024-05-09T18:03:14.020Z,102271.50
2024-05-09T18:05:43.315Z,102270.44
2024-05-09T18:08:11.814Z,102271.72
2024-05-09T18:10:41.209Z,102271.06
2024-05-09T18:13:10.266Z,102268.84
2024-05-09T18:15:38.669Z,102265.84
2024-05-09T18:18:07.570Z,102264.56
2024-05-09T18:20:42.760Z,102268.66
2024-05-09T18:23:18.504Z,102261.47
2024-05-09T18:25:47.885Z,102260.00
2024-05-09T18:28:16.987Z,102270.88
2024-05-09T18:30:44.945Z,102258.59
2024-05-09T18:33:13.501Z,102261.44
2024-05-09T18:35:44.900Z,102268.09
2024-05-09T18:38:12.845Z,102268.41
2024-05-09T18:40:42.069Z,102262.50
2024-05-09T18:43:11.232Z,102278.22
2024-05-09T18:45:39.048Z,102274.41
2024-05-09T18:48:08.631Z,102273.94
2024-05-09T18:50:39.975Z,102268.91
2024-05-09T18:53:11.798Z,102266.75
2024-05-09T18:55:44.201Z,102273.97
2024-05-09T18:58:11.745Z,102271.47
2024-05-09T19:00:41.741Z,102268.88
2024-05-09T19:03:14.060Z,102267.06
2024-05-09T19:05:44.680Z,102265.16
2024-05-09T19:08:14.507Z,102272.06
2024-05-09T19:10:41.972Z,102279.75
2024-05-09T19:13:12.432Z,102280.28
2024-05-09T19:15:42.502Z,102286.13
2024-05-09T19:18:12.486Z,102283.91
2024-05-09T19:20:40.444Z,102296.81
2024-05-09T19:23:07.982Z,102298.91
2024-05-09T19:25:36.210Z,102302.81
2024-05-09T19:28:05.426Z,102304.91
2024-05-09T19:30:38.976Z,102302.56
2024-05-09T19:33:12.087Z,102300.25
2024-05-09T19:35:40.517Z,102303.16
2024-05-09T19:38:08.163Z,102299.91
2024-05-09T19:40:36.028Z,102309.00
2024-05-09T19:43:05.670Z,102304.75
2024-05-09T19:45:35.198Z,102302.31
2024-05-09T19:48:04.867Z,102307.91
2024-05-09T19:50:40.862Z,102304.72
2024-05-09T19:53:14.697Z,102306.78
2024-05-09T19:55:42.877Z,102303.53
2024-05-09T19:58:11.603Z,102293.13
2024-05-09T20:00:42.133Z,102296.91
2024-05-09T20:03:15.659Z,102296.31
2024-05-09T20:05:46.751Z,102296.56
2024-05-09T20:08:15.577Z,102305.66
2024-05-09T20:10:43.380Z,102302.31
2024-05-09T20:13:11.028Z,102300.75
2024-05-09T20:15:38.946Z,102300.81
2024-05-09T20:18:07.229Z,102302.69
2024-05-09T20:20:39.728Z,102302.81
2024-05-09T20:23:13.984Z,102302.03
2024-05-09T20:25:42.603Z,102291.56
2024-05-09T20:28:10.854Z,102305.06
2024-05-09T20:30:39.075Z,102306.16
2024-05-09T20:33:08.224Z,102302.84
2024-05-09T20:35:36.909Z,102305.66
2024-05-09T20:38:04.916Z,102305.81
2024-05-09T20:40:36.425Z,102306.78
2024-05-09T20:43:08.410Z,102309.56
2024-05-09T20:45:36.380Z,102305.28
2024-05-09T20:48:04.302Z,102313.41
2024-05-09T20:50:38.103Z,102307.31
2024-05-09T20:53:10.746Z,102309.19
2024-05-09T20:55:38.800Z,102308.44
2024-05-09T20:58:06.098Z,102305.91
2024-05-09T21:00:39.992Z,102306.81
2024-05-09T21:03:11.513Z,102300.72
2024-05-09T21:05:39.729Z,102303.41
2024-05-09T21:08:07.699Z,102305.31
2024-05-09T21:10:37.011Z,102305.50
2024-05-09T21:13:06.031Z,102305.69
2024-05-09T21:15:34.482Z,102304.06
2024-05-09T21:18:02.153Z,102307.75
2024-05-09T21:20:32.779Z,102304.31
2024-05-09T21:23:01.953Z,102305.25
2024-05-09T21:25:29.902Z,102307.00
2024-05-09T21:28:01.067Z,102302.59
2024-05-09T21:30:38.417Z,102306.16
2024-05-09T21:33:11.649Z,102307.16
2024-05-09T21:35:41.621Z,102303.66
2024-05-09T21:38:09.145Z,102311.56
2024-05-09T21:40:38.001Z,102309.69
2024-05-09T21:43:07.937Z,102316.72
2024-05-09T21:45:36.816Z,102312.25
2024-05-09T21:48:06.026Z,102314.00
2024-05-09T21:50:39.847Z,102320.22
2024-05-09T21:53:11.228Z,102314.91
2024-05-09T21:55:38.775Z,102314.97
2024-05-09T21:58:06.197Z,102320.25
2024-05-09T22:00:38.079Z,102314.09
2024-05-09T22:03:10.959Z,102321.16
2024-05-09T22:05:42.203Z,102319.38
2024-05-09T22:08:10.854Z,102322.91
2024-05-09T22:10:38.579Z,102321.16
2024-05-09T22:13:06.971Z,102310.56
2024-05-09T22:15:37.483Z,102321.13
2024-05-09T22:18:08.319Z,102315.00
2024-05-09T22:20:39.205Z,102313.31
2024-05-09T22:23:08.629Z,102316.91
2024-05-09T22:25:38.524Z,102313.38
2024-05-09T22:28:07.152Z,102311.66
2024-05-09T22:30:38.271Z,102312.50
2024-05-09T22:33:10.149Z,102315.16
2024-05-09T22:35:39.543Z,102319.56
2024-05-09T22:38:06.973Z,102323.91
2024-05-09T22:40:44.919Z,102310.63
2024-05-09T22:43:24.004Z,102315.00
2024-05-09T22:45:54.982Z,102314.13
2024-05-09T22:48:24.593Z,102314.09
2024-05-09T22:50:53.343Z,102313.19
2024-05-09T22:53:25.550Z,102319.31
2024-05-09T22:55:54.122Z,102311.41
2024-05-09T22:58:22.687Z,102305.25
2024-05-09T23:00:50.311Z,102308.75
2024-05-09T23:03:21.125Z,102317.66
2024-05-09T23:05:49.076Z,102308.91
2024-05-09T23:08:16.430Z,102308.06
2024-05-09T23:10:43.757Z,102310.75
2024-05-09T23:13:11.175Z,102316.97
2024-05-09T23:15:38.908Z,102314.34
2024-05-09T23:18:08.470Z,102309.91
2024-05-09T23:20:38.989Z,102309.91
2024-05-09T23:23:10.084Z,102309.94
2024-05-09T23:25:39.388Z,102303.75
2024-05-09T23:28:07.345Z,102302.84
2024-05-09T23:30:38.713Z,102294.91
2024-05-09T23:33:12.857Z,102294.91
2024-05-09T23:35:41.888Z,102294.09
2024-05-09T23:38:09.384Z,102301.16
2024-05-09T23:40:39.954Z,102295.00
2024-05-09T23:43:10.605Z,102294.19
2024-05-09T23:45:38.758Z,102294.19
2024-05-09T23:48:07.070Z,102302.16
2024-05-09T23:50:37.836Z,102292.44
2024-05-09T23:53:08.829Z,102295.09
2024-05-09T23:55:37.652Z,102287.16
2024-05-09T23:58:06.392Z,102290.69
